Impacts METAR Board
IDs:

KCLL - College Station/East, TX, US

Updated at: 0400 UTC 06 Dec 2019
Potential Impact None Slight Moderate High
Time 05/16Z 05/17Z 05/18Z 05/19Z 05/20Z 05/21Z 05/22Z 05/23Z 06/00Z 06/01Z 06/02Z 06/03Z 06/04Z
Temp65 70 74 74 77 76 75 74 71 70 69 68 67
Dewpt53 58 59 59 59 59 59 59 59 59 59 59 61
Altim30.07 30.06 30.04 29.99 29.96 29.94 29.94 29.94 29.94 29.96 29.96 29.98 29.99
VIS10 10 10 10 10 10 10 10 10 10 10 10 10
CIG11 28 26 -- -- -- -- -- -- -- -- -- --
CoverBKNBKNBKNSCTSCTSCTFEWCLRCLRCLRCLRCLRCLR
FltCatMVFRMVFRMVFRVFRVFRVFRVFRVFRVFRVFRVFRVFRVFR
WX--------------------------
WDir140190200200200200190180170170170170180
WSpd7 10 10 14 12 11 9 9 8 8 10 9 9
WGst-- -- 18 21 21 -- 17 -- -- -- -- -- --
Raw hourly METARs
KCLL 051553Z 14007KT 10SM BKN011 BKN017 18/12 A3007 RMK AO2 CIG 008V012 SLP180 T01830117
KCLL 051653Z 19010KT 10SM FEW022 BKN028 21/14 A3006 RMK AO2 SLP178 T02110144
KCLL 051753Z 20010G18KT 10SM BKN026 23/15 A3004 RMK AO2 SLP167 T02330150 10233 20111 58010
KCLL 051853Z 20014G21KT 10SM SCT031 23/15 A2999 RMK AO2 SLP154 T02330150
KCLL 051953Z 20012G21KT 10SM SCT034 25/15 A2996 RMK AO2 SLP143 T02500150
KCLL 052053Z 20011KT 10SM SCT036 24/15 A2994 RMK AO2 SLP137 T02440150 56031
KCLL 052153Z 19009G17KT 10SM FEW036 24/15 A2994 RMK AO2 SLP136 T02390150
KCLL 052253Z 18009KT 10SM CLR 23/15 A2994 RMK AO2 SLP136 T02330150
KCLL 052353Z 17008KT 10SM CLR 22/15 A2994 RMK AO2 SLP137 T02170150 10250 20217 53000
KCLL 060053Z 17008KT 10SM CLR 21/15 A2996 RMK AO2 SLP141 T02110150 $
KCLL 060153Z 17010KT 10SM CLR 21/15 A2996 RMK AO2 SLP144 T02060150 $
KCLL 060253Z AUTO 17009KT 10SM CLR 20/15 A2998 RMK AO2 SLP149 T02000150 53012
KCLL 060353Z AUTO 18009KT 10SM CLR 19/16 A2999 RMK AO2 SLP151 T01940161